Time;durP1;ratioP1;P1;durP2;ratioP2;P2;SDS_P1;SDS_P2;PMS_P1;PMS_P2;Temp;Humidity;BMP_temperature;BMP_pressure;BME280_temperature;BME280_humidity;BME280_pressure;Samples;Min_cycle;Max_cycle;Signal;HPM_P1;HPM_P2
2023/12/21 00:00:44;;;;;;;14.73;4.45;;;10.40;93.60;;;;;;5035220;28;20053;-86
2023/12/21 00:03:10;;;;;;;14.55;3.90;;;10.40;93.50;;;;;;5065799;28;20029;-86
2023/12/21 00:05:36;;;;;;;13.55;4.22;;;10.40;93.50;;;;;;5025923;28;20040;-85
2023/12/21 00:08:02;;;;;;;16.63;4.15;;;10.40;93.60;;;;;;5045777;28;20021;-86
2023/12/21 00:10:27;;;;;;;13.13;3.75;;;10.40;93.60;;;;;;5048935;28;20048;-86
2023/12/21 00:12:56;;;;;;;15.93;4.00;;;10.40;93.50;;;;;;5052737;28;20029;-86
2023/12/21 00:15:25;;;;;;;16.42;4.05;;;10.40;93.60;;;;;;5047178;28;20052;-86
2023/12/21 00:17:50;;;;;;;22.58;5.15;;;10.40;93.60;;;;;;5045997;28;20017;-86
2023/12/21 00:20:16;;;;;;;17.70;4.50;;;10.50;93.40;;;;;;5046771;28;20582;-86
2023/12/21 00:22:42;;;;;;;15.55;4.18;;;10.40;93.40;;;;;;5068187;28;20075;-85
2023/12/21 00:25:08;;;;;;;18.67;5.20;;;10.40;93.60;;;;;;5057888;28;20291;-86
2023/12/21 00:27:34;;;;;;;19.60;4.85;;;10.40;93.70;;;;;;5061786;28;20017;-87
2023/12/21 00:30:02;;;;;;;17.00;5.50;;;10.50;93.50;;;;;;5051837;28;20045;-86
2023/12/21 00:32:28;;;;;;;17.92;4.65;;;10.40;93.50;;;;;;5048734;28;20508;-87
2023/12/21 00:34:54;;;;;;;21.70;5.30;;;10.50;93.40;;;;;;5051400;28;20090;-87
2023/12/21 00:37:21;;;;;;;18.38;5.10;;;10.40;93.50;;;;;;5067775;28;20048;-87
2023/12/21 00:39:47;;;;;;;19.13;4.90;;;10.40;93.70;;;;;;5035892;28;20031;-86
2023/12/21 00:42:13;;;;;;;22.85;4.90;;;10.40;93.60;;;;;;5033300;28;20044;-87
2023/12/21 00:44:38;;;;;;;15.75;4.50;;;10.40;93.80;;;;;;5041730;28;20028;-86
2023/12/21 00:47:04;;;;;;;17.92;4.78;;;10.40;93.70;;;;;;5045823;28;20166;-86
2023/12/21 00:49:32;;;;;;;22.20;5.40;;;10.50;93.70;;;;;;5046538;28;20032;-86
2023/12/21 00:51:58;;;;;;;21.45;5.95;;;10.40;93.80;;;;;;5046463;28;20040;-86
2023/12/21 00:54:24;;;;;;;16.92;5.07;;;10.40;93.70;;;;;;5049295;28;20482;-86
2023/12/21 00:56:49;;;;;;;24.55;5.10;;;10.50;93.70;;;;;;5046017;28;20029;-86
2023/12/21 00:59:15;;;;;;;22.60;5.22;;;10.40;93.70;;;;;;5046830;28;20037;-85
2023/12/21 01:01:41;;;;;;;21.10;5.18;;;10.40;94.00;;;;;;5067409;28;20048;-86
2023/12/21 01:04:07;;;;;;;18.48;4.95;;;10.40;93.90;;;;;;5052080;28;20073;-85
2023/12/21 01:06:36;;;;;;;23.30;5.65;;;10.40;93.90;;;;;;5064275;28;20476;-86
2023/12/21 01:09:05;;;;;;;21.38;6.22;;;10.40;93.80;;;;;;5045612;28;20033;-85
2023/12/21 01:11:34;;;;;;;22.45;5.30;;;10.40;93.90;;;;;;5046362;28;20060;-85
2023/12/21 01:13:59;;;;;;;23.25;5.97;;;10.40;93.80;;;;;;5064254;28;20025;-85
2023/12/21 01:16:28;;;;;;;17.25;5.25;;;10.40;94.10;;;;;;5048879;28;20039;-86
2023/12/21 01:18:54;;;;;;;24.90;5.55;;;10.40;93.90;;;;;;5042770;28;20433;-86
2023/12/21 01:21:19;;;;;;;20.40;5.15;;;10.50;93.90;;;;;;5045121;28;20060;-86
2023/12/21 01:23:46;;;;;;;19.92;5.38;;;10.50;93.80;;;;;;5047701;28;20056;-86
2023/12/21 01:26:11;;;;;;;24.88;5.78;;;10.50;93.70;;;;;;5039406;28;20041;-86
2023/12/21 01:28:40;;;;;;;21.27;5.70;;;10.50;93.70;;;;;;5058231;28;20044;-86
2023/12/21 01:31:08;;;;;;;22.00;5.78;;;10.50;93.60;;;;;;5044951;28;20128;-86
2023/12/21 01:33:34;;;;;;;21.48;6.07;;;10.50;93.70;;;;;;5050818;28;20025;-85
2023/12/21 01:36:07;;;;;;;19.92;5.28;;;10.50;93.80;;;;;;5042617;28;20033;-85
2023/12/21 01:38:33;;;;;;;20.92;5.88;;;10.50;93.90;;;;;;5045057;28;20070;-86
2023/12/21 01:40:59;;;;;;;21.23;5.70;;;10.50;93.80;;;;;;5043762;28;20064;-86
2023/12/21 01:43:25;;;;;;;20.77;6.15;;;10.50;93.80;;;;;;5046416;28;20059;-86
2023/12/21 01:45:52;;;;;;;22.23;5.32;;;10.40;93.80;;;;;;5034909;28;20045;-86
2023/12/21 01:48:22;;;;;;;26.45;5.65;;;10.50;93.90;;;;;;5048893;28;20109;-86
2023/12/21 01:50:48;;;;;;;24.90;5.70;;;10.50;94.00;;;;;;5034251;28;20055;-86
2023/12/21 01:53:15;;;;;;;20.65;5.90;;;10.50;93.90;;;;;;5043728;28;20475;-85
2023/12/21 01:55:42;;;;;;;25.20;5.65;;;10.50;94.00;;;;;;5039096;28;20124;-85
2023/12/21 01:58:09;;;;;;;18.65;5.10;;;10.40;94.10;;;;;;5061195;28;20096;-86
2023/12/21 02:00:34;;;;;;;26.73;6.30;;;10.40;94.20;;;;;;5036939;28;20045;-86
2023/12/21 02:03:04;;;;;;;25.75;6.50;;;10.40;94.20;;;;;;5048833;28;20400;-85
2023/12/21 02:05:33;;;;;;;23.77;6.25;;;10.40;94.30;;;;;;5053790;28;20671;-85
2023/12/21 02:07:58;;;;;;;24.52;6.75;;;10.40;94.20;;;;;;5046483;28;20029;-86
2023/12/21 02:10:24;;;;;;;19.60;5.20;;;10.50;94.20;;;;;;5048651;28;20086;-86
2023/12/21 02:12:50;;;;;;;24.98;6.13;;;10.50;94.00;;;;;;5059763;28;20085;-87
2023/12/21 02:15:16;;;;;;;21.02;5.55;;;10.50;94.10;;;;;;5045159;28;20086;-86
2023/12/21 02:17:44;;;;;;;25.40;6.18;;;10.50;94.20;;;;;;5041429;28;20036;-86
2023/12/21 02:20:13;;;;;;;25.70;5.82;;;10.50;94.10;;;;;;5047030;28;20553;-85
2023/12/21 02:22:41;;;;;;;26.77;6.55;;;10.50;94.10;;;;;;5047458;28;20532;-86
2023/12/21 02:25:08;;;;;;;21.95;5.45;;;10.50;94.20;;;;;;5045869;28;20048;-86
2023/12/21 02:27:34;;;;;;;26.15;6.45;;;10.50;94.20;;;;;;5049584;28;20037;-87
2023/12/21 02:29:59;;;;;;;22.88;6.00;;;10.50;94.30;;;;;;5050702;28;20086;-86
2023/12/21 02:32:28;;;;;;;27.52;6.35;;;10.50;94.20;;;;;;5053311;28;20036;-87
2023/12/21 02:34:53;;;;;;;29.38;6.85;;;10.50;94.30;;;;;;5049769;28;20041;-86
2023/12/21 02:37:20;;;;;;;27.23;6.95;;;10.60;94.30;;;;;;5050964;28;20035;-85
2023/12/21 02:39:45;;;;;;;23.63;5.90;;;10.50;94.30;;;;;;5049267;28;20064;-86
2023/12/21 02:42:11;;;;;;;25.83;6.38;;;10.50;94.30;;;;;;5037914;28;20471;-86
2023/12/21 02:44:37;;;;;;;26.40;6.03;;;10.60;94.30;;;;;;5038801;28;20020;-86
2023/12/21 02:47:02;;;;;;;29.23;6.55;;;10.50;94.40;;;;;;5041485;28;20088;-85
2023/12/21 02:49:28;;;;;;;19.08;5.25;;;10.50;94.50;;;;;;5064343;28;20528;-86
2023/12/21 02:51:55;;;;;;;28.42;5.95;;;10.40;94.60;;;;;;5049067;28;20040;-85
2023/12/21 02:54:21;;;;;;;27.27;6.47;;;10.30;94.70;;;;;;5044969;28;20554;-85
2023/12/21 02:56:46;;;;;;;29.83;7.35;;;10.40;94.90;;;;;;5044521;28;20033;-86
2023/12/21 02:59:12;;;;;;;24.95;5.38;;;10.30;95.00;;;;;;5038459;28;20077;-86
2023/12/21 03:01:42;;;;;;;27.40;7.00;;;10.30;95.10;;;;;;5041205;28;20035;-86
2023/12/21 03:04:11;;;;;;;23.83;6.10;;;10.40;95.20;;;;;;5044438;28;20059;-85
2023/12/21 03:06:36;;;;;;;23.00;5.72;;;10.30;95.30;;;;;;5054391;28;20122;-85
2023/12/21 03:09:02;;;;;;;26.45;5.80;;;10.30;95.40;;;;;;5039923;28;20071;-85
2023/12/21 03:11:30;;;;;;;22.17;5.70;;;10.30;95.50;;;;;;5044380;28;20377;-86
2023/12/21 03:13:55;;;;;;;21.60;5.80;;;10.40;95.60;;;;;;5043213;28;20032;-86
2023/12/21 03:16:21;;;;;;;24.98;5.68;;;10.40;95.50;;;;;;5044640;28;20036;-86
2023/12/21 03:18:50;;;;;;;28.00;6.25;;;10.40;95.50;;;;;;5038907;28;20025;-86
2023/12/21 03:21:15;;;;;;;25.77;5.90;;;10.40;95.40;;;;;;5045484;28;20040;-86
2023/12/21 03:23:41;;;;;;;28.38;6.10;;;10.50;95.40;;;;;;5030915;28;20075;-87
2023/12/21 03:26:09;;;;;;;24.83;5.20;;;10.40;95.40;;;;;;5024809;28;20033;-86
2023/12/21 03:28:35;;;;;;;20.83;5.50;;;10.50;95.50;;;;;;5020183;28;20021;-85
2023/12/21 03:31:01;;;;;;;23.70;5.13;;;10.50;95.40;;;;;;5013292;28;20500;-85
2023/12/21 03:33:27;;;;;;;25.48;6.82;;;10.50;95.40;;;;;;5022467;28;20642;-85
2023/12/21 03:35:52;;;;;;;22.55;5.50;;;10.50;95.40;;;;;;5019384;28;20117;-85
2023/12/21 03:38:18;;;;;;;20.70;5.32;;;10.50;95.40;;;;;;5018819;28;20239;-85
2023/12/21 03:40:44;;;;;;;20.95;5.65;;;10.50;95.30;;;;;;5018149;28;20080;-85
2023/12/21 03:43:10;;;;;;;18.30;5.03;;;10.50;95.30;;;;;;5022266;28;20043;-85
2023/12/21 03:45:40;;;;;;;25.30;5.00;;;10.50;95.50;;;;;;5015038;28;20042;-85
2023/12/21 03:48:10;;;;;;;20.45;5.68;;;10.60;95.30;;;;;;5026257;28;20033;-85
2023/12/21 03:50:36;;;;;;;28.35;6.22;;;10.60;95.30;;;;;;5023905;28;20125;-86
2023/12/21 03:53:03;;;;;;;19.80;4.38;;;10.60;95.20;;;;;;5024939;28;20029;-85
2023/12/21 03:55:29;;;;;;;24.40;5.30;;;10.60;95.30;;;;;;5021299;28;20057;-86
2023/12/21 03:57:56;;;;;;;20.13;4.85;;;10.60;95.30;;;;;;5029016;28;20018;-86
2023/12/21 04:00:22;;;;;;;22.13;4.93;;;10.60;95.40;;;;;;5022052;28;20053;-86
2023/12/21 04:02:48;;;;;;;21.48;5.60;;;10.60;95.30;;;;;;5026429;28;20416;-85
2023/12/21 04:05:14;;;;;;;21.73;4.57;;;10.60;95.20;;;;;;5017834;28;20533;-85
2023/12/21 04:07:40;;;;;;;23.58;4.88;;;10.60;95.30;;;;;;5018088;28;20076;-86
2023/12/21 04:10:07;;;;;;;15.45;4.38;;;10.70;95.10;;;;;;5017097;28;20437;-85
2023/12/21 04:12:32;;;;;;;16.38;5.03;;;10.60;95.20;;;;;;5015312;28;20116;-86
2023/12/21 04:15:00;;;;;;;15.75;4.88;;;10.60;95.20;;;;;;5020102;28;20097;-86
2023/12/21 04:17:28;;;;;;;23.92;4.65;;;10.60;95.30;;;;;;5013180;28;20132;-85
2023/12/21 04:19:54;;;;;;;24.52;5.25;;;10.60;95.30;;;;;;5023209;28;20034;-85
2023/12/21 04:22:20;;;;;;;23.42;5.43;;;10.60;95.30;;;;;;5023555;28;20056;-85
2023/12/21 04:24:46;;;;;;;22.02;4.97;;;10.60;95.20;;;;;;5021476;28;20116;-86
2023/12/21 04:27:12;;;;;;;20.00;5.00;;;10.70;95.20;;;;;;5014891;28;20128;-86
2023/12/21 04:29:38;;;;;;;20.67;4.70;;;10.70;95.10;;;;;;5014535;28;20040;-86
2023/12/21 04:32:04;;;;;;;16.13;4.53;;;10.70;95.10;;;;;;5021635;28;20129;-86
2023/12/21 04:34:30;;;;;;;17.67;4.63;;;10.70;95.30;;;;;;5018808;28;20034;-85
2023/12/21 04:36:56;;;;;;;15.52;4.63;;;10.70;95.10;;;;;;5007713;28;20439;-85
2023/12/21 04:39:22;;;;;;;20.75;5.03;;;10.70;95.10;;;;;;5010770;28;20042;-85
2023/12/21 04:41:48;;;;;;;21.52;4.97;;;10.70;95.10;;;;;;5011642;28;20041;-86
2023/12/21 04:44:14;;;;;;;17.63;4.68;;;10.70;95.10;;;;;;5023867;28;20062;-84
2023/12/21 04:46:40;;;;;;;19.90;4.55;;;10.70;95.10;;;;;;5017951;28;20061;-86
2023/12/21 04:49:06;;;;;;;19.85;5.55;;;10.70;95.20;;;;;;5025732;28;20076;-85
2023/12/21 04:51:32;;;;;;;19.08;4.97;;;10.70;95.20;;;;;;5022283;28;20029;-86
2023/12/21 04:53:57;;;;;;;19.67;5.43;;;10.70;95.20;;;;;;5023727;28;20381;-86
2023/12/21 04:56:23;;;;;;;22.42;5.15;;;10.70;95.20;;;;;;5022094;28;20034;-86
2023/12/21 04:58:49;;;;;;;22.75;5.68;;;10.70;95.10;;;;;;5021752;28;20079;-86
2023/12/21 05:01:14;;;;;;;18.00;5.35;;;10.70;95.00;;;;;;5020207;28;20370;-86
2023/12/21 05:03:43;;;;;;;18.65;5.72;;;10.70;95.00;;;;;;5027400;28;20018;-85
2023/12/21 05:06:09;;;;;;;18.73;5.40;;;10.70;95.00;;;;;;5021647;28;20037;-85
2023/12/21 05:08:34;;;;;;;21.08;5.50;;;10.80;95.00;;;;;;5027298;28;20458;-86
2023/12/21 05:11:00;;;;;;;17.58;5.57;;;10.80;94.90;;;;;;5012290;28;20459;-86
2023/12/21 05:13:26;;;;;;;22.58;5.28;;;10.80;94.80;;;;;;5011992;28;20029;-86
2023/12/21 05:15:54;;;;;;;17.17;4.57;;;10.80;94.90;;;;;;5020310;28;20354;-85
2023/12/21 05:18:19;;;;;;;18.45;4.03;;;10.80;94.80;;;;;;5025830;28;20034;-86
2023/12/21 05:20:45;;;;;;;21.05;4.55;;;10.80;94.80;;;;;;5021557;28;20068;-85
2023/12/21 05:23:11;;;;;;;20.45;4.97;;;10.90;94.70;;;;;;5026312;28;20064;-85
2023/12/21 05:25:36;;;;;;;16.00;4.30;;;10.80;94.60;;;;;;5007299;28;20088;-87
2023/12/21 05:28:02;;;;;;;16.80;4.60;;;10.80;94.70;;;;;;5016888;28;20025;-85
2023/12/21 05:30:28;;;;;;;19.33;4.38;;;10.80;94.70;;;;;;5017884;28;20049;-86
2023/12/21 05:32:56;;;;;;;19.52;4.28;;;10.80;94.80;;;;;;5020925;28;20456;-85
2023/12/21 05:35:25;;;;;;;13.93;3.95;;;10.90;94.60;;;;;;5020819;28;20030;-86
2023/12/21 05:37:50;;;;;;;17.35;4.05;;;10.80;94.50;;;;;;5011511;28;20041;-86
2023/12/21 05:40:16;;;;;;;19.05;4.05;;;10.90;94.40;;;;;;5018073;28;20474;-86
2023/12/21 05:42:42;;;;;;;22.50;4.55;;;10.90;94.40;;;;;;5017211;28;20437;-85
2023/12/21 05:45:11;;;;;;;12.52;3.80;;;10.90;94.30;;;;;;5019964;28;20033;-86
2023/12/21 05:47:36;;;;;;;16.42;3.60;;;10.90;94.30;;;;;;5025108;28;20034;-86
2023/12/21 05:50:07;;;;;;;17.23;4.35;;;10.90;94.30;;;;;;5026391;28;20326;-85
2023/12/21 05:52:33;;;;;;;19.17;4.45;;;11.00;94.30;;;;;;5024098;28;20034;-86
2023/12/21 05:54:59;;;;;;;14.38;3.22;;;11.00;94.10;;;;;;5024302;28;20048;-86
2023/12/21 05:57:25;;;;;;;16.88;3.53;;;11.00;94.20;;;;;;5018706;28;20179;-86
2023/12/21 05:59:51;;;;;;;16.63;4.47;;;11.10;94.00;;;;;;5026186;28;20057;-86
2023/12/21 06:02:16;;;;;;;15.63;3.88;;;11.00;94.00;;;;;;5030799;28;20041;-86
2023/12/21 06:04:42;;;;;;;14.93;4.55;;;11.00;94.10;;;;;;5027801;28;20026;-85
2023/12/21 06:07:07;;;;;;;14.02;4.15;;;11.10;94.10;;;;;;5023006;28;20053;-86
2023/12/21 06:09:33;;;;;;;13.57;4.18;;;11.10;93.90;;;;;;5023816;28;20156;-85
2023/12/21 06:11:59;;;;;;;21.17;4.60;;;11.10;94.10;;;;;;5019209;28;20033;-86
2023/12/21 06:14:25;;;;;;;15.52;3.70;;;11.10;94.10;;;;;;5025923;28;20018;-86
2023/12/21 06:16:50;;;;;;;15.45;3.13;;;11.10;94.00;;;;;;5024791;28;20037;-84
2023/12/21 06:19:16;;;;;;;14.25;4.45;;;11.10;94.00;;;;;;5020694;28;20038;-85
2023/12/21 06:21:42;;;;;;;14.68;3.60;;;11.10;93.90;;;;;;5028419;28;20045;-85
2023/12/21 06:24:08;;;;;;;15.98;3.92;;;11.20;93.80;;;;;;5038286;28;20085;-85
2023/12/21 06:26:39;;;;;;;15.18;4.40;;;11.20;93.80;;;;;;5014999;28;20040;-85
2023/12/21 06:29:04;;;;;;;15.23;4.22;;;11.30;93.80;;;;;;5018402;28;20037;-85
2023/12/21 06:31:30;;;;;;;17.15;4.55;;;11.20;93.60;;;;;;5011969;28;20034;-86
2023/12/21 06:33:56;;;;;;;12.68;3.50;;;11.30;93.80;;;;;;5025219;28;20049;-85
2023/12/21 06:36:23;;;;;;;13.60;3.25;;;11.30;93.80;;;;;;5014781;28;20041;-86
2023/12/21 06:38:49;;;;;;;11.18;3.10;;;11.30;93.80;;;;;;5028876;28;20029;-86
2023/12/21 06:41:14;;;;;;;12.23;3.45;;;11.20;93.60;;;;;;5029096;28;20127;-86
2023/12/21 06:43:43;;;;;;;11.82;3.20;;;11.30;93.70;;;;;;5030783;28;20450;-86
2023/12/21 06:46:13;;;;;;;15.50;3.50;;;11.30;93.60;;;;;;5019524;28;20041;-85
2023/12/21 06:48:39;;;;;;;12.88;3.50;;;11.30;93.50;;;;;;5031146;28;20025;-85
2023/12/21 06:51:08;;;;;;;10.68;2.92;;;11.30;93.40;;;;;;5019953;28;20037;-86
2023/12/21 06:53:34;;;;;;;12.00;3.55;;;11.40;93.40;;;;;;5027569;28;20454;-86
2023/12/21 06:56:02;;;;;;;13.00;3.10;;;11.40;93.30;;;;;;5027466;28;20040;-86
2023/12/21 06:58:31;;;;;;;14.05;3.30;;;11.40;93.20;;;;;;5024674;28;20089;-86
2023/12/21 07:00:57;;;;;;;13.30;3.38;;;11.40;93.20;;;;;;5024737;28;20037;-86
2023/12/21 07:03:22;;;;;;;12.50;3.38;;;11.40;93.10;;;;;;5031036;28;20459;-86
2023/12/21 07:05:50;;;;;;;11.60;3.53;;;11.30;93.20;;;;;;5028711;28;20034;-85
2023/12/21 07:08:17;;;;;;;11.95;3.42;;;11.30;93.10;;;;;;5039397;28;20018;-86
2023/12/21 07:10:43;;;;;;;12.93;3.55;;;11.40;92.90;;;;;;5030433;28;20048;-87
2023/12/21 07:13:10;;;;;;;13.68;3.67;;;11.40;92.90;;;;;;5028741;28;20030;-87
2023/12/21 07:15:35;;;;;;;10.95;3.38;;;11.40;92.90;;;;;;5018564;28;20048;-86
2023/12/21 07:18:01;;;;;;;16.45;4.05;;;11.40;92.80;;;;;;5029272;28;20470;-85
2023/12/21 07:20:28;;;;;;;14.32;3.53;;;11.40;92.80;;;;;;5005102;28;20060;-86
2023/12/21 07:22:57;;;;;;;10.55;3.15;;;11.40;92.60;;;;;;4999282;28;20045;-85
2023/12/21 07:25:23;;;;;;;11.35;3.10;;;11.40;92.50;;;;;;5025403;28;20118;-85
2023/12/21 07:27:49;;;;;;;11.52;3.20;;;11.50;92.50;;;;;;5027752;28;20033;-86
2023/12/21 07:30:16;;;;;;;10.85;3.13;;;11.50;92.40;;;;;;5023548;28;20032;-86
2023/12/21 07:32:42;;;;;;;14.32;2.95;;;11.50;92.20;;;;;;5026194;28;20450;-86
2023/12/21 07:35:08;;;;;;;12.73;3.00;;;11.50;92.20;;;;;;5022500;28;20048;-85
2023/12/21 07:37:36;;;;;;;10.85;3.53;;;11.50;92.30;;;;;;5028237;28;20536;-86
2023/12/21 07:40:03;;;;;;;12.10;3.28;;;11.50;92.30;;;;;;5025087;28;20401;-86
2023/12/21 07:42:29;;;;;;;10.45;3.38;;;11.50;92.20;;;;;;5030705;28;20038;-86
2023/12/21 07:44:54;;;;;;;8.82;3.03;;;11.50;92.30;;;;;;5027770;28;20044;-85
2023/12/21 07:47:20;;;;;;;8.32;2.75;;;11.50;92.30;;;;;;5021709;28;20037;-86
2023/12/21 07:49:46;;;;;;;8.90;2.90;;;11.50;92.40;;;;;;5026622;28;20140;-86
2023/12/21 07:52:11;;;;;;;11.45;2.70;;;11.50;92.20;;;;;;5018966;28;20122;-84
2023/12/21 07:54:37;;;;;;;8.77;2.17;;;11.50;92.30;;;;;;5022011;28;20485;-86
2023/12/21 07:57:03;;;;;;;8.32;2.38;;;11.50;92.10;;;;;;5019112;28;20046;-85
2023/12/21 07:59:29;;;;;;;9.05;2.40;;;11.50;92.00;;;;;;5021464;28;20036;-86
2023/12/21 08:01:55;;;;;;;7.85;2.58;;;11.50;92.00;;;;;;5020405;28;20041;-86
2023/12/21 08:04:23;;;;;;;9.07;2.30;;;11.50;92.00;;;;;;5016082;28;20026;-86
2023/12/21 08:06:51;;;;;;;12.45;2.47;;;11.60;92.10;;;;;;5020272;28;20045;-86
2023/12/21 08:09:17;;;;;;;8.38;2.30;;;11.60;92.10;;;;;;5025755;28;20122;-85
2023/12/21 08:11:43;;;;;;;12.68;3.20;;;11.50;92.20;;;;;;5026472;28;20149;-88
2023/12/21 08:14:08;;;;;;;9.75;2.38;;;11.50;92.20;;;;;;5054030;23;20029;-72
2023/12/21 08:16:34;;;;;;;11.27;2.95;;;11.50;92.30;;;;;;5052284;28;20033;-75
2023/12/21 08:18:59;;;;;;;9.73;2.30;;;11.50;92.30;;;;;;5051323;28;20464;-79
2023/12/21 08:21:25;;;;;;;11.07;2.42;;;11.60;92.20;;;;;;5051367;28;20136;-78
2023/12/21 08:23:51;;;;;;;8.45;2.53;;;11.60;92.00;;;;;;5042534;28;20044;-76
2023/12/21 08:26:17;;;;;;;11.25;2.60;;;11.60;92.00;;;;;;5053607;28;20422;-81
2023/12/21 08:28:42;;;;;;;8.77;2.78;;;11.70;91.90;;;;;;5060127;28;20032;-78
2023/12/21 08:31:08;;;;;;;8.75;2.30;;;11.70;91.80;;;;;;5043700;28;20044;-75
2023/12/21 08:33:35;;;;;;;13.00;2.53;;;11.70;91.80;;;;;;5052082;28;20029;-74
2023/12/21 08:36:01;;;;;;;10.50;2.65;;;11.70;91.90;;;;;;5057585;28;20400;-75
2023/12/21 08:38:26;;;;;;;9.68;2.17;;;11.70;92.00;;;;;;5051519;28;20024;-74
2023/12/21 08:40:52;;;;;;;8.57;2.70;;;11.60;92.10;;;;;;5049536;28;20185;-74
2023/12/21 08:43:18;;;;;;;7.53;2.10;;;11.60;92.00;;;;;;5049226;28;20052;-74
2023/12/21 08:45:43;;;;;;;9.02;2.80;;;11.70;92.20;;;;;;5043487;28;20036;-74
2023/12/21 08:48:09;;;;;;;12.57;3.25;;;11.70;92.10;;;;;;5047166;28;20499;-75
2023/12/21 08:50:35;;;;;;;11.05;2.13;;;11.60;92.20;;;;;;5059583;28;20368;-73
2023/12/21 08:53:02;;;;;;;8.35;2.47;;;11.70;92.10;;;;;;5046750;28;20042;-74
2023/12/21 08:55:29;;;;;;;8.30;2.42;;;11.70;92.30;;;;;;5053421;28;20115;-72
2023/12/21 08:57:56;;;;;;;8.57;2.25;;;11.70;92.20;;;;;;5062722;28;20028;-75
2023/12/21 09:00:21;;;;;;;12.25;2.20;;;11.70;92.20;;;;;;5059638;28;20056;-73
2023/12/21 09:02:47;;;;;;;10.15;2.60;;;11.70;92.20;;;;;;5059178;28;20029;-74
2023/12/21 09:05:13;;;;;;;8.18;2.33;;;11.70;92.10;;;;;;5053664;28;20117;-73
2023/12/21 09:07:39;;;;;;;9.82;2.92;;;11.70;92.10;;;;;;5057862;28;20104;-75
2023/12/21 09:10:06;;;;;;;10.00;2.40;;;11.80;92.10;;;;;;5062927;28;20174;-74
2023/12/21 09:12:32;;;;;;;6.90;1.95;;;11.80;92.20;;;;;;5062016;28;20056;-77
2023/12/21 09:14:57;;;;;;;6.90;2.17;;;11.80;92.20;;;;;;5069863;28;20032;-76
2023/12/21 09:17:23;;;;;;;9.07;2.42;;;11.70;92.30;;;;;;5084087;28;20021;-75
2023/12/21 09:19:48;;;;;;;7.90;2.10;;;11.80;92.10;;;;;;5083960;28;20044;-76
2023/12/21 09:22:14;;;;;;;9.43;2.10;;;11.90;91.90;;;;;;5058510;28;20503;-74
2023/12/21 09:24:40;;;;;;;10.68;2.30;;;11.90;92.10;;;;;;5078718;28;20028;-75
2023/12/21 09:27:06;;;;;;;7.15;1.95;;;11.90;92.00;;;;;;5064507;28;20118;-74
2023/12/21 09:29:31;;;;;;;7.32;1.90;;;12.00;92.00;;;;;;5058932;28;20040;-75
2023/12/21 09:31:57;;;;;;;8.75;2.58;;;11.90;92.00;;;;;;5060817;28;20033;-76
2023/12/21 09:34:23;;;;;;;10.70;2.13;;;11.90;92.10;;;;;;5064976;28;20969;-75
2023/12/21 09:36:48;;;;;;;6.93;2.35;;;12.00;92.10;;;;;;5056382;28;20041;-76
2023/12/21 09:39:14;;;;;;;9.10;2.10;;;12.00;91.90;;;;;;5064930;28;20013;-74
2023/12/21 09:41:40;;;;;;;7.35;2.40;;;12.10;91.90;;;;;;5067316;28;20039;-76
2023/12/21 09:44:06;;;;;;;9.43;2.30;;;12.10;92.00;;;;;;5048359;28;20036;-75
2023/12/21 09:46:39;;;;;;;9.20;2.55;;;12.10;92.00;;;;;;5060172;28;20114;-77
2023/12/21 09:49:06;;;;;;;11.48;2.97;;;12.10;92.00;;;;;;5062964;28;20464;-77
2023/12/21 09:51:34;;;;;;;6.40;2.20;;;12.10;92.00;;;;;;5057540;28;20048;-73
2023/12/21 09:54:01;;;;;;;7.65;2.05;;;12.10;91.90;;;;;;5060346;28;20025;-74
2023/12/21 09:56:28;;;;;;;9.43;2.47;;;12.10;92.00;;;;;;5067933;28;20530;-73
2023/12/21 09:58:55;;;;;;;11.05;2.35;;;12.10;92.00;;;;;;5065819;28;20402;-76
2023/12/21 10:01:21;;;;;;;11.55;2.90;;;12.10;91.90;;;;;;5063192;28;20048;-75
2023/12/21 10:03:47;;;;;;;9.93;2.30;;;12.10;91.90;;;;;;5047639;28;21228;-76
2023/12/21 10:06:13;;;;;;;8.27;2.47;;;12.10;91.90;;;;;;5062031;28;20083;-76
2023/12/21 10:08:39;;;;;;;8.32;2.60;;;12.10;91.90;;;;;;5061616;28;20029;-77
2023/12/21 10:11:08;;;;;;;8.52;2.33;;;12.20;91.80;;;;;;5058838;28;20041;-75
2023/12/21 10:13:36;;;;;;;9.65;2.25;;;12.20;91.60;;;;;;5063481;28;20038;-77
2023/12/21 10:16:03;;;;;;;8.88;2.42;;;12.20;91.60;;;;;;5049513;28;20044;-76
2023/12/21 10:18:30;;;;;;;9.32;2.00;;;12.20;91.60;;;;;;5065259;28;20027;-77
2023/12/21 10:20:56;;;;;;;8.25;2.10;;;12.30;91.60;;;;;;5035353;28;20075;-76
2023/12/21 10:23:22;;;;;;;8.27;2.30;;;12.40;91.50;;;;;;5052670;28;20029;-76
2023/12/21 10:25:48;;;;;;;8.60;2.40;;;12.40;91.30;;;;;;5055128;28;20090;-77
2023/12/21 10:28:14;;;;;;;9.40;2.38;;;12.50;91.20;;;;;;5058849;28;20103;-75
2023/12/21 10:30:40;;;;;;;7.75;2.25;;;12.50;91.30;;;;;;5052532;28;20051;-76
2023/12/21 10:33:09;;;;;;;10.68;2.05;;;12.50;91.20;;;;;;5050866;28;20060;-76
2023/12/21 10:35:37;;;;;;;8.55;2.10;;;12.60;91.10;;;;;;5036456;28;20037;-74
2023/12/21 10:38:03;;;;;;;9.70;2.13;;;12.60;91.00;;;;;;5062988;28;20103;-75
2023/12/21 10:40:29;;;;;;;9.43;2.22;;;12.60;90.90;;;;;;5056358;28;20041;-76
2023/12/21 10:42:56;;;;;;;9.25;2.13;;;12.60;90.80;;;;;;5060088;28;20029;-76
2023/12/21 10:45:22;;;;;;;6.63;2.25;;;12.70;90.70;;;;;;5051637;28;20136;-80
2023/12/21 10:47:52;;;;;;;8.45;2.30;;;12.80;90.50;;;;;;5066454;28;20031;-77
2023/12/21 10:50:19;;;;;;;8.77;2.15;;;12.80;90.30;;;;;;5045531;28;20052;-79
2023/12/21 10:52:46;;;;;;;8.15;2.38;;;12.90;90.30;;;;;;5066659;28;20024;-78
2023/12/21 10:55:15;;;;;;;6.63;2.13;;;13.00;90.30;;;;;;5064105;28;20087;-76
2023/12/21 10:57:41;;;;;;;8.40;1.98;;;13.00;90.30;;;;;;5063337;28;20445;-76
2023/12/21 11:00:13;;;;;;;7.75;1.90;;;12.90;90.70;;;;;;5050032;28;20060;-75
2023/12/21 11:02:46;;;;;;;10.13;2.30;;;12.90;90.80;;;;;;5059597;28;20025;-76
2023/12/21 11:05:26;;;;;;;7.07;2.00;;;12.80;91.40;;;;;;5044981;28;20049;-75
2023/12/21 11:07:54;;;;;;;8.77;2.65;;;12.80;91.60;;;;;;5056683;28;20040;-76
2023/12/21 11:10:23;;;;;;;8.13;2.17;;;12.80;91.90;;;;;;5056264;28;21327;-75
2023/12/21 11:12:50;;;;;;;8.82;2.25;;;12.80;92.10;;;;;;5064572;28;20047;-76
2023/12/21 11:15:18;;;;;;;9.02;2.22;;;12.80;92.20;;;;;;5046083;28;20106;-74
2023/12/21 11:18:09;;;;;;;7.88;2.80;;;12.70;92.80;;;;;;5074407;28;20453;-75
2023/12/21 11:20:43;;;;;;;8.05;2.22;;;12.60;93.80;;;;;;5047312;28;20504;-77
2023/12/21 11:23:09;;;;;;;6.90;2.28;;;12.50;94.40;;;;;;5053142;28;20017;-77
2023/12/21 11:25:35;;;;;;;9.85;3.15;;;12.40;94.80;;;;;;5053188;28;20032;-75
2023/12/21 11:28:02;;;;;;;10.20;2.80;;;12.30;95.20;;;;;;5044086;28;20039;-76
2023/12/21 11:30:29;;;;;;;12.88;2.92;;;12.20;95.90;;;;;;5052137;28;20068;-76
2023/12/21 11:33:09;;;;;;;9.93;2.50;;;12.20;96.00;;;;;;5035860;28;20029;-75
2023/12/21 11:35:35;;;;;;;15.10;3.53;;;12.10;96.70;;;;;;5051789;28;20052;-75
2023/12/21 11:38:05;;;;;;;12.20;3.17;;;12.10;97.00;;;;;;5055060;28;20025;-77
2023/12/21 11:40:32;;;;;;;10.82;3.38;;;12.00;97.10;;;;;;5033190;28;20750;-76
2023/12/21 11:43:00;;;;;;;9.98;3.08;;;12.00;97.10;;;;;;5051445;28;20025;-75
2023/12/21 11:45:30;;;;;;;10.50;2.95;;;12.00;96.60;;;;;;5049141;28;20040;-75
2023/12/21 11:48:04;;;;;;;16.48;3.30;;;12.10;96.60;;;;;;5041991;28;20051;-77
2023/12/21 11:50:33;;;;;;;14.60;3.85;;;12.10;96.40;;;;;;5040260;28;20037;-76
2023/12/21 11:53:06;;;;;;;15.75;3.47;;;12.10;96.20;;;;;;5051877;28;20016;-74
2023/12/21 11:55:41;;;;;;;10.13;3.72;;;12.10;96.10;;;;;;5046828;28;20033;-79
2023/12/21 11:58:23;;;;;;;12.50;3.08;;;12.10;96.00;;;;;;5054471;28;20060;-76
2023/12/21 12:00:53;;;;;;;12.68;3.22;;;12.20;95.80;;;;;;5060380;28;20396;-77
2023/12/21 12:03:21;;;;;;;11.55;2.78;;;12.20;95.80;;;;;;5055646;28;20013;-77
2023/12/21 12:05:53;;;;;;;9.43;2.90;;;12.20;96.00;;;;;;5052519;28;20041;-79
2023/12/21 12:08:25;;;;;;;12.82;3.58;;;12.10;96.20;;;;;;5057773;28;20016;-76
2023/12/21 12:10:52;;;;;;;9.68;3.05;;;12.20;95.90;;;;;;5039713;28;20040;-76
2023/12/21 12:13:19;;;;;;;9.90;2.75;;;12.20;95.90;;;;;;5058219;28;20029;-76
2023/12/21 12:15:48;;;;;;;13.82;3.65;;;12.20;95.70;;;;;;5054470;28;20044;-78
2023/12/21 12:18:15;;;;;;;12.43;3.00;;;12.20;95.70;;;;;;5059636;28;20028;-76
2023/12/21 12:20:44;;;;;;;12.25;3.10;;;12.20;95.80;;;;;;5048437;28;20049;-78
2023/12/21 12:23:11;;;;;;;16.25;3.85;;;12.20;95.80;;;;;;5051723;28;20104;-77
2023/12/21 12:25:36;;;;;;;14.05;4.18;;;12.20;95.90;;;;;;5054648;28;20171;-78
2023/12/21 12:28:04;;;;;;;12.20;3.10;;;12.20;96.10;;;;;;5062384;28;20107;-78
2023/12/21 12:30:30;;;;;;;14.50;3.90;;;12.20;96.10;;;;;;5053312;28;20062;-77
2023/12/21 12:32:56;;;;;;;13.80;3.25;;;12.10;96.20;;;;;;5059221;28;20061;-76
2023/12/21 12:35:22;;;;;;;11.70;3.30;;;12.10;96.30;;;;;;5056931;28;20032;-77